Time;durP1;ratioP1;P1;durP2;ratioP2;P2;SDS_P1;SDS_P2;PMS_P1;PMS_P2;Temp;Humidity;BMP_temperature;BMP_pressure;BME280_temperature;BME280_humidity;BME280_pressure;Samples;Min_cycle;Max_cycle;Signal;HPM_P1;HPM_P2
2024/01/12 00:00:47;;;;;;;;;;;;;;;;;;5038023;28;20372;-85
2024/01/12 00:03:13;;;;;;;;;;;;;;;;;;5051505;28;19924;-88
2024/01/12 00:05:39;;;;;;;;;;;;;;;;;;5036245;28;19931;-88
2024/01/12 00:08:05;;;;;;;;;;;;;;;;;;5053257;28;19924;-88
2024/01/12 00:10:31;;;;;;;;;;;;;;;;;;5019799;28;19925;-88
2024/01/12 00:12:57;;;;;;;;;;;;;;;;;;5041784;28;19928;-88
2024/01/12 00:15:23;;;;;;;;;;;;;;;;;;5052709;28;19925;-87
2024/01/12 00:17:49;;;;;;;;;;;;;;;;;;5042479;28;20284;-85
2024/01/12 00:20:15;;;;;;;;;;;;;;;;;;5034543;28;20433;-87
2024/01/12 00:22:41;;;;;;;;;;;;;;;;;;5035254;28;20004;-88
2024/01/12 00:25:07;;;;;;;;;;;;;;;;;;5026559;28;19925;-88
2024/01/12 00:27:33;;;;;;;;;;;;;;;;;;5018280;28;19925;-87
2024/01/12 00:29:59;;;;;;;;;;;;;;;;;;5045317;28;20266;-88
2024/01/12 00:32:25;;;;;;;;;;;;;;;;;;5041814;28;19977;-88
2024/01/12 00:34:51;;;;;;;;;;;;;;;;;;5048719;28;19932;-85
2024/01/12 00:37:17;;;;;;;;;;;;;;;;;;5021572;28;20030;-88
2024/01/12 00:39:42;;;;;;;;;;;;;;;;;;5031538;28;20369;-87
2024/01/12 00:42:08;;;;;;;;;;;;;;;;;;5041729;28;20369;-86
2024/01/12 00:44:34;;;;;;;;;;;;;;;;;;5050638;28;20365;-87
2024/01/12 00:47:00;;;;;;;;;;;;;;;;;;5035194;28;19932;-89
2024/01/12 00:49:26;;;;;;;;;;;;;;;;;;5028222;28;19928;-88
2024/01/12 00:51:52;;;;;;;;;;;;;;;;;;5038374;28;19925;-88
2024/01/12 00:54:22;;;;;;;;;;;;;;;;;;5023187;28;19929;-87
2024/01/12 00:56:48;;;;;;;;;;;;;;;;;;5034557;28;19929;-89
2024/01/12 00:59:14;;;;;;;;;;;;;;;;;;5039817;28;20527;-88
2024/01/12 01:01:40;;;;;;;;;;;;;;;;;;5049048;28;20042;-88
2024/01/12 01:04:06;;;;;;;;;;;;;;;;;;5054529;28;19950;-89
2024/01/12 01:06:32;;;;;;;;;;;;;;;;;;5056261;28;19928;-89
2024/01/12 01:08:58;;;;;;;;;;;;;;;;;;5056435;28;19932;-85
2024/01/12 01:11:24;;;;;;;;;;;;;;;;;;5058949;28;19964;-89
2024/01/12 01:13:50;;;;;;;;;;;;;;;;;;5042459;28;20285;-88
2024/01/12 01:16:16;;;;;;;;;;;;;;;;;;5045938;28;19929;-89
2024/01/12 01:18:42;;;;;;;;;;;;;;;;;;5042777;28;19925;-89
2024/01/12 01:21:08;;;;;;;;;;;;;;;;;;5056670;28;19934;-88
2024/01/12 01:23:34;;;;;;;;;;;;;;;;;;5031383;28;19924;-89
2024/01/12 01:26:00;;;;;;;;;;;;;;;;;;5050161;28;19924;-85
2024/01/12 01:28:26;;;;;;;;;;;;;;;;;;5033763;28;19928;-86
2024/01/12 01:30:52;;;;;;;;;;;;;;;;;;5037553;28;20015;-87
2024/01/12 01:33:18;;;;;;;;;;;;;;;;;;5038548;28;19979;-88
2024/01/12 01:35:44;;;;;;;;;;;;;;;;;;5035555;28;19924;-88
2024/01/12 01:38:10;;;;;;;;;;;;;;;;;;5058227;28;20263;-89
2024/01/12 01:40:36;;;;;;;;;;;;;;;;;;5053053;28;19928;-89
2024/01/12 01:43:02;;;;;;;;;;;;;;;;;;5040598;28;19968;-85
2024/01/12 01:45:28;;;;;;;;;;;;;;;;;;5038168;28;19929;-89
2024/01/12 01:47:54;;;;;;;;;;;;;;;;;;5041756;28;19975;-89
2024/01/12 01:50:20;;;;;;;;;;;;;;;;;;5041412;28;19925;-86
2024/01/12 01:52:46;;;;;;;;;;;;;;;;;;5047461;28;20122;-88
2024/01/12 01:55:12;;;;;;;;;;;;;;;;;;5053954;28;19924;-87
2024/01/12 01:57:39;;;;;;;;;;;;;;;;;;5041031;28;20370;-88
2024/01/12 02:00:05;;;;;;;;;;;;;;;;;;5051991;28;20480;-84
2024/01/12 02:02:31;;;;;;;;;;;;;;;;;;5033421;28;20019;-88
2024/01/12 02:04:57;;;;;;;;;;;;;;;;;;5050218;28;19963;-88
2024/01/12 02:07:23;;;;;;;;;;;;;;;;;;5021190;28;19925;-88
2024/01/12 02:09:49;;;;;;;;;;;;;;;;;;5049590;28;19931;-87
2024/01/12 02:12:15;;;;;;;;;;;;;;;;;;5041041;28;20049;-88
2024/01/12 02:14:41;;;;;;;;;;;;;;;;;;5039265;28;19975;-88
2024/01/12 02:17:07;;;;;;;;;;;;;;;;;;5041141;28;19929;-87
2024/01/12 02:19:33;;;;;;;;;;;;;;;;;;5029491;28;20007;-88
2024/01/12 02:21:59;;;;;;;;;;;;;;;;;;5041187;28;20369;-88
2024/01/12 02:24:25;;;;;;;;;;;;;;;;;;5054802;28;19932;-88
2024/01/12 02:26:50;;;;;;;;;;;;;;;;;;5024895;28;19925;-88
2024/01/12 02:29:16;;;;;;;;;;;;;;;;;;5039294;28;20163;-88
2024/01/12 02:31:42;;;;;;;;;;;;;;;;;;5030081;28;20007;-87
2024/01/12 02:34:08;;;;;;;;;;;;;;;;;;5026910;28;19931;-85
2024/01/12 02:36:34;;;;;;;;;;;;;;;;;;5030586;28;19924;-88
2024/01/12 02:39:00;;;;;;;;;;;;;;;;;;5050385;28;19924;-88
2024/01/12 02:41:26;;;;;;;;;;;;;;;;;;5056736;28;19929;-88
2024/01/12 02:43:52;;;;;;;;;;;;;;;;;;5051723;28;19925;-89
2024/01/12 02:46:18;;;;;;;;;;;;;;;;;;5046769;28;19924;-88
2024/01/12 02:48:44;;;;;;;;;;;;;;;;;;5050166;28;19925;-88
2024/01/12 02:51:10;;;;;;;;;;;;;;;;;;5031892;28;19931;-86
2024/01/12 02:53:36;;;;;;;;;;;;;;;;;;5054750;28;19929;-88
2024/01/12 02:56:02;;;;;;;;;;;;;;;;;;5036762;28;19925;-87
2024/01/12 02:58:28;;;;;;;;;;;;;;;;;;5035494;28;19925;-88
2024/01/12 03:00:54;;;;;;;;;;;;;;;;;;5020848;28;19925;-87
2024/01/12 03:03:20;;;;;;;;;;;;;;;;;;5027408;28;20011;-87
2024/01/12 03:05:46;;;;;;;;;;;;;;;;;;5036873;28;19987;-87
2024/01/12 03:08:12;;;;;;;;;;;;;;;;;;5042653;28;19925;-84
2024/01/12 03:10:38;;;;;;;;;;;;;;;;;;5036552;28;19932;-87
2024/01/12 03:13:04;;;;;;;;;;;;;;;;;;5041034;28;19924;-87
2024/01/12 03:15:30;;;;;;;;;;;;;;;;;;5038864;28;19979;-88
2024/01/12 03:17:56;;;;;;;;;;;;;;;;;;5019773;28;19925;-88
2024/01/12 03:20:22;;;;;;;;;;;;;;;;;;5046126;28;19974;-86
2024/01/12 03:22:48;;;;;;;;;;;;;;;;;;5038952;28;19972;-86
2024/01/12 03:25:13;;;;;;;;;;;;;;;;;;5036350;28;19932;-87
2024/01/12 03:27:39;;;;;;;;;;;;;;;;;;5035578;28;20397;-87
2024/01/12 03:30:05;;;;;;;;;;;;;;;;;;5048692;28;20383;-87
2024/01/12 03:32:33;;;;;;;;;;;;;;;;;;5042938;28;20272;-87
2024/01/12 03:34:59;;;;;;;;;;;;;;;;;;5023899;28;19960;-87
2024/01/12 03:37:25;;;;;;;;;;;;;;;;;;5048737;28;19975;-87
2024/01/12 03:39:51;;;;;;;;;;;;;;;;;;5041656;28;19924;-85
2024/01/12 03:42:17;;;;;;;;;;;;;;;;;;5036963;28;19948;-85
2024/01/12 03:44:43;;;;;;;;;;;;;;;;;;5047632;28;19925;-87
2024/01/12 03:47:09;;;;;;;;;;;;;;;;;;5027231;28;19970;-87
2024/01/12 03:49:35;;;;;;;;;;;;;;;;;;5038601;28;20441;-87
2024/01/12 03:52:01;;;;;;;;;;;;;;;;;;5055467;28;20380;-87
2024/01/12 03:54:27;;;;;;;;;;;;;;;;;;5026387;28;19929;-87
2024/01/12 03:56:53;;;;;;;;;;;;;;;;;;5046203;28;19971;-85
2024/01/12 03:59:19;;;;;;;;;;;;;;;;;;5030632;28;19929;-84
2024/01/12 04:01:45;;;;;;;;;;;;;;;;;;5042363;28;19924;-86
2024/01/12 04:04:11;;;;;;;;;;;;;;;;;;5053359;28;19931;-87
2024/01/12 04:06:36;;;;;;;;;;;;;;;;;;5054714;28;19928;-87
2024/01/12 04:09:02;;;;;;;;;;;;;;;;;;5043293;28;20377;-86
2024/01/12 04:11:28;;;;;;;;;;;;;;;;;;5052459;28;20289;-87
2024/01/12 04:13:55;;;;;;;;;;;;;;;;;;5031690;28;20002;-86
2024/01/12 04:16:21;;;;;;;;;;;;;;;;;;5019321;28;19977;-86
2024/01/12 04:18:47;;;;;;;;;;;;;;;;;;5018502;28;20041;-86
2024/01/12 04:21:12;;;;;;;;;;;;;;;;;;5018594;28;19975;-86
2024/01/12 04:23:39;;;;;;;;;;;;;;;;;;5048094;28;19932;-87
2024/01/12 04:26:05;;;;;;;;;;;;;;;;;;5053387;28;19925;-87
2024/01/12 04:28:31;;;;;;;;;;;;;;;;;;5045625;28;19931;-86
2024/01/12 04:30:56;;;;;;;;;;;;;;;;;;5038245;28;19929;-87
2024/01/12 04:33:22;;;;;;;;;;;;;;;;;;5037937;28;19929;-88
2024/01/12 04:35:48;;;;;;;;;;;;;;;;;;5037241;28;19924;-86
2024/01/12 04:38:15;;;;;;;;;;;;;;;;;;5052637;28;19970;-86
2024/01/12 04:40:41;;;;;;;;;;;;;;;;;;5054026;28;19925;-87
2024/01/12 04:43:07;;;;;;;;;;;;;;;;;;5042771;28;19935;-86
2024/01/12 04:45:33;;;;;;;;;;;;;;;;;;5040462;28;19925;-86
2024/01/12 04:47:59;;;;;;;;;;;;;;;;;;5037970;28;20368;-87
2024/01/12 04:50:25;;;;;;;;;;;;;;;;;;5028254;28;19925;-86
2024/01/12 04:52:52;;;;;;;;;;;;;;;;;;5033007;28;20387;-87
2024/01/12 04:55:18;;;;;;;;;;;;;;;;;;5036363;28;19925;-86
2024/01/12 04:57:44;;;;;;;;;;;;;;;;;;5020041;28;20011;-86
2024/01/12 05:00:10;;;;;;;;;;;;;;;;;;5038073;28;20008;-87
2024/01/12 05:02:36;;;;;;;;;;;;;;;;;;5053819;28;19924;-85
2024/01/12 05:05:04;;;;;;;;;;;;;;;;;;5052484;28;19925;-86
2024/01/12 05:07:30;;;;;;;;;;;;;;;;;;5037203;28;20358;-85
2024/01/12 05:09:56;;;;;;;;;;;;;;;;;;5049887;28;19925;-86
2024/01/12 05:12:22;;;;;;;;;;;;;;;;;;5037268;28;20018;-86
2024/01/12 05:14:48;;;;;;;;;;;;;;;;;;5028020;28;19924;-86
2024/01/12 05:17:14;;;;;;;;;;;;;;;;;;5035481;28;19925;-86
2024/01/12 05:19:39;;;;;;;;;;;;;;;;;;5039941;28;19978;-87
2024/01/12 05:22:05;;;;;;;;;;;;;;;;;;5037725;28;20366;-86
2024/01/12 05:24:31;;;;;;;;;;;;;;;;;;5032563;28;20281;-84
2024/01/12 05:26:57;;;;;;;;;;;;;;;;;;5034016;28;19929;-86
2024/01/12 05:29:23;;;;;;;;;;;;;;;;;;5016492;28;19929;-87
2024/01/12 05:31:49;;;;;;;;;;;;;;;;;;5028525;28;19932;-86
2024/01/12 05:34:15;;;;;;;;;;;;;;;;;;5027469;28;19929;-86
2024/01/12 05:36:41;;;;;;;;;;;;;;;;;;5047413;28;19925;-87
2024/01/12 05:39:08;;;;;;;;;;;;;;;;;;5035135;28;20015;-87
2024/01/12 05:41:34;;;;;;;;;;;;;;;;;;5021707;28;19931;-83
2024/01/12 05:43:59;;;;;;;;;;;;;;;;;;5025670;28;19924;-85
2024/01/12 05:46:25;;;;;;;;;;;;;;;;;;5034530;28;19977;-87
2024/01/12 05:48:51;;;;;;;;;;;;;;;;;;5036835;28;19931;-87
2024/01/12 05:51:17;;;;;;;;;;;;;;;;;;5051038;28;19924;-86
2024/01/12 05:53:44;;;;;;;;;;;;;;;;;;5054439;28;19924;-87
2024/01/12 05:56:10;;;;;;;;;;;;;;;;;;5037191;28;20400;-85
2024/01/12 05:58:36;;;;;;;;;;;;;;;;;;5039733;28;19925;-85
2024/01/12 06:01:01;;;;;;;;;;;;;;;;;;5043132;28;19931;-86
2024/01/12 06:03:28;;;;;;;;;;;;;;;;;;5040527;28;19924;-84
2024/01/12 06:05:54;;;;;;;;;;;;;;;;;;5041040;28;20776;-87
2024/01/12 06:08:20;;;;;;;;;;;;;;;;;;5024646;28;20004;-86
2024/01/12 06:10:46;;;;;;;;;;;;;;;;;;5052549;28;20431;-86
2024/01/12 06:13:12;;;;;;;;;;;;;;;;;;5036588;28;19924;-85
2024/01/12 06:15:38;;;;;;;;;;;;;;;;;;5022117;28;19970;-84
2024/01/12 06:18:04;;;;;;;;;;;;;;;;;;5040461;28;20277;-86
2024/01/12 06:20:30;;;;;;;;;;;;;;;;;;5043880;28;19932;-86
2024/01/12 06:22:56;;;;;;;;;;;;;;;;;;5039825;28;19994;-86
2024/01/12 06:25:22;;;;;;;;;;;;;;;;;;5037766;28;20374;-85
2024/01/12 06:27:49;;;;;;;;;;;;;;;;;;5035421;28;19978;-86
2024/01/12 06:30:15;;;;;;;;;;;;;;;;;;5029279;28;19971;-85
2024/01/12 06:32:41;;;;;;;;;;;;;;;;;;5041335;28;19928;-86
2024/01/12 06:35:07;;;;;;;;;;;;;;;;;;5035219;28;19974;-85
2024/01/12 06:37:33;;;;;;;;;;;;;;;;;;5053818;28;19932;-85
2024/01/12 06:40:00;;;;;;;;;;;;;;;;;;5056355;28;20369;-86
2024/01/12 06:42:26;;;;;;;;;;;;;;;;;;5049581;28;20020;-86
2024/01/12 06:44:52;;;;;;;;;;;;;;;;;;5052479;28;20016;-86
2024/01/12 06:47:18;;;;;;;;;;;;;;;;;;5031478;28;19924;-86
2024/01/12 06:49:45;;;;;;;;;;;;;;;;;;5054061;28;20019;-85
2024/01/12 06:52:11;;;;;;;;;;;;;;;;;;5038866;28;19924;-86
2024/01/12 06:54:37;;;;;;;;;;;;;;;;;;5039499;28;19935;-85
2024/01/12 06:57:02;;;;;;;;;;;;;;;;;;5028122;28;19925;-85
2024/01/12 06:59:28;;;;;;;;;;;;;;;;;;5030923;28;19928;-85
2024/01/12 07:01:54;;;;;;;;;;;;;;;;;;5050551;28;19947;-85
2024/01/12 07:04:20;;;;;;;;;;;;;;;;;;5036316;28;19925;-86
2024/01/12 07:06:46;;;;;;;;;;;;;;;;;;5054840;28;20336;-85
2024/01/12 07:09:14;;;;;;;;;;;;;;;;;;5041812;28;19928;-85
2024/01/12 07:11:40;;;;;;;;;;;;;;;;;;5039661;28;19931;-85
2024/01/12 07:14:05;;;;;;;;;;;;;;;;;;5050794;28;20363;-85
2024/01/12 07:16:31;;;;;;;;;;;;;;;;;;5042669;28;19931;-85
2024/01/12 07:18:57;;;;;;;;;;;;;;;;;;5051710;28;19940;-85
2024/01/12 07:21:23;;;;;;;;;;;;;;;;;;5054314;28;19928;-84
2024/01/12 07:23:49;;;;;;;;;;;;;;;;;;5035617;28;20030;-89
2024/01/12 07:26:15;;;;;;;;;;;;;;;;;;5056332;28;20324;-88
2024/01/12 07:28:42;;;;;;;;;;;;;;;;;;5022466;28;19947;-88
2024/01/12 07:31:08;;;;;;;;;;;;;;;;;;5035493;28;19931;-87
2024/01/12 07:33:34;;;;;;;;;;;;;;;;;;5050069;28;20018;-89
2024/01/12 07:36:00;;;;;;;;;;;;;;;;;;5053564;28;19932;-84
2024/01/12 07:38:26;;;;;;;;;;;;;;;;;;5036374;28;19929;-87
2024/01/12 07:40:52;;;;;;;;;;;;;;;;;;5055281;28;19924;-87
2024/01/12 07:43:18;;;;;;;;;;;;;;;;;;5051270;28;20399;-82
2024/01/12 07:45:44;;;;;;;;;;;;;;;;;;5025095;28;19924;-85
2024/01/12 07:48:10;;;;;;;;;;;;;;;;;;5037379;28;20017;-78
2024/01/12 07:50:36;;;;;;;;;;;;;;;;;;5047761;28;20280;-81
2024/01/12 07:53:01;;;;;;;;;;;;;;;;;;5018268;28;19982;-81
2024/01/12 07:55:27;;;;;;;;;;;;;;;;;;5045153;28;19925;-83
2024/01/12 07:57:53;;;;;;;;;;;;;;;;;;5026631;28;20024;-82
2024/01/12 08:00:19;;;;;;;;;;;;;;;;;;5034821;28;19924;-85
2024/01/12 08:02:45;;;;;;;;;;;;;;;;;;5053157;28;20396;-84
2024/01/12 08:05:11;;;;;;;;;;;;;;;;;;5055129;28;20564;-84
2024/01/12 08:07:37;;;;;;;;;;;;;;;;;;5036446;28;19947;-85
2024/01/12 08:10:03;;;;;;;;;;;;;;;;;;5035530;28;19931;-87
2024/01/12 08:12:29;;;;;;;;;;;;;;;;;;5052228;28;20000;-85
2024/01/12 08:14:55;;;;;;;;;;;;;;;;;;5046104;28;19924;-77
2024/01/12 08:17:21;;;;;;;;;;;;;;;;;;5037763;28;19981;-77
2024/01/12 08:19:47;;;;;;;;;;;;;;;;;;5054424;28;20393;-77
2024/01/12 08:22:13;;;;;;;;;;;;;;;;;;5071941;28;20019;-72
2024/01/12 08:24:40;;;;;;;;;;;;;;;;;;5054840;28;19932;-86
2024/01/12 08:27:06;;;;;;;;;;;;;;;;;;5053719;28;19931;-84
2024/01/12 08:29:31;;;;;;;;;;;;;;;;;;5053298;28;19925;-84
2024/01/12 08:31:58;;;;;;;;;;;;;;;;;;5044790;28;19932;-83
2024/01/12 08:34:24;;;;;;;;;;;;;;;;;;5037529;28;19925;-84
2024/01/12 08:36:50;;;;;;;;;;;;;;;;;;5048076;28;19932;-85
2024/01/12 08:39:16;;;;;;;;;;;;;;;;;;5027107;28;19929;-84
2024/01/12 08:41:42;;;;;;;;;;;;;;;;;;5042203;28;19931;-84
2024/01/12 08:44:08;;;;;;;;;;;;;;;;;;5049937;28;19924;-84
2024/01/12 08:46:34;;;;;;;;;;;;;;;;;;5045744;28;19976;-84
2024/01/12 08:49:00;;;;;;;;;;;;;;;;;;5037036;28;19974;-83
2024/01/12 08:51:26;;;;;;;;;;;;;;;;;;5020598;28;20055;-84
2024/01/12 08:53:52;;;;;;;;;;;;;;;;;;5039474;28;19928;-84
2024/01/12 08:56:18;;;;;;;;;;;;;;;;;;5051360;28;19986;-84
2024/01/12 08:58:44;;;;;;;;;;;;;;;;;;5041186;28;19925;-84
2024/01/12 09:01:10;;;;;;;;;;;;;;;;;;5019502;28;19925;-83
2024/01/12 09:03:36;;;;;;;;;;;;;;;;;;5046697;28;19994;-84
2024/01/12 09:06:02;;;;;;;;;;;;;;;;;;5026989;28;19963;-82
2024/01/12 09:08:28;;;;;;;;;;;;;;;;;;5046071;28;19928;-84
2024/01/12 09:10:54;;;;;;;;;;;;;;;;;;5048506;28;19925;-84
2024/01/12 09:13:20;;;;;;;;;;;;;;;;;;5018211;28;19925;-83
2024/01/12 09:15:46;;;;;;;;;;;;;;;;;;5026446;28;19944;-85
2024/01/12 09:18:12;;;;;;;;;;;;;;;;;;5027868;28;20007;-83
2024/01/12 09:20:38;;;;;;;;;;;;;;;;;;5046432;28;20407;-86
2024/01/12 09:23:04;;;;;;;;;;;;;;;;;;5022684;28;19938;-83
2024/01/12 09:25:30;;;;;;;;;;;;;;;;;;5032699;28;19970;-84
2024/01/12 09:27:57;;;;;;;;;;;;;;;;;;5029422;28;19939;-84
2024/01/12 09:30:23;;;;;;;;;;;;;;;;;;5035933;28;20488;-85
2024/01/12 09:32:49;;;;;;;;;;;;;;;;;;5040915;28;19925;-85
2024/01/12 09:35:15;;;;;;;;;;;;;;;;;;5030262;28;19964;-86
2024/01/12 09:37:41;;;;;;;;;;;;;;;;;;5057128;28;20292;-85
2024/01/12 09:40:07;;;;;;;;;;;;;;;;;;5057604;28;20015;-84
2024/01/12 09:42:33;;;;;;;;;;;;;;;;;;5038058;28;19986;-83
2024/01/12 09:44:58;;;;;;;;;;;;;;;;;;5028439;28;19978;-85
2024/01/12 09:47:24;;;;;;;;;;;;;;;;;;5055422;28;19929;-85
2024/01/12 09:49:50;;;;;;;;;;;;;;;;;;5066947;28;19924;-85
2024/01/12 09:52:17;;;;;;;;;;;;;;;;;;5053419;28;19935;-85
2024/01/12 09:54:44;;;;;;;;;;;;;;;;;;5050839;28;20020;-83
2024/01/12 09:57:10;;;;;;;;;;;;;;;;;;5065840;28;20395;-85
2024/01/12 09:59:36;;;;;;;;;;;;;;;;;;5066577;28;20019;-85
2024/01/12 10:02:02;;;;;;;;;;;;;;;;;;5042246;28;19929;-84
2024/01/12 10:04:28;;;;;;;;;;;;;;;;;;5028169;28;19925;-84
2024/01/12 10:06:54;;;;;;;;;;;;;;;;;;5050881;28;19934;-84
2024/01/12 10:09:24;;;;;;;;;;;;;;;;;;5069010;28;19929;-84
2024/01/12 10:11:50;;;;;;;;;;;;;;;;;;5065763;28;19932;-84
2024/01/12 10:14:16;;;;;;;;;;;;;;;;;;5046225;28;19925;-84
2024/01/12 10:16:42;;;;;;;;;;;;;;;;;;5062527;28;19935;-85
2024/01/12 10:19:08;;;;;;;;;;;;;;;;;;5064305;28;19972;-84
2024/01/12 10:21:34;;;;;;;;;;;;;;;;;;5056207;28;19982;-84
2024/01/12 10:24:01;;;;;;;;;;;;;;;;;;5046778;28;19932;-84
2024/01/12 10:26:27;;;;;;;;;;;;;;;;;;5035417;28;19925;-83
2024/01/12 10:28:53;;;;;;;;;;;;;;;;;;5030539;28;19924;-84
2024/01/12 10:31:19;;;;;;;;;;;;;;;;;;5067621;28;20048;-85
2024/01/12 10:33:45;;;;;;;;;;;;;;;;;;5060344;28;19924;-84
2024/01/12 10:36:12;;;;;;;;;;;;;;;;;;5054259;28;19931;-83
2024/01/12 10:38:38;;;;;;;;;;;;;;;;;;5050983;28;19924;-85
2024/01/12 10:41:04;;;;;;;;;;;;;;;;;;5039989;28;19925;-85
2024/01/12 10:43:30;;;;;;;;;;;;;;;;;;5055402;28;20303;-85
2024/01/12 10:45:56;;;;;;;;;;;;;;;;;;5035434;28;20171;-83
2024/01/12 10:48:22;;;;;;;;;;;;;;;;;;5051250;28;19924;-86
2024/01/12 10:50:48;;;;;;;;;;;;;;;;;;5033157;28;19963;-86
2024/01/12 10:53:14;;;;;;;;;;;;;;;;;;5026897;28;19929;-83
2024/01/12 10:55:40;;;;;;;;;;;;;;;;;;5028229;28;20399;-88
2024/01/12 10:58:06;;;;;;;;;;;;;;;;;;5044720;28;19940;-83
2024/01/12 11:03:00;;;;;;;20.02;6.00;;;;;;;;;;5109218;27;20192;-83
2024/01/12 11:05:28;;;;;;;19.08;5.60;;;;;;;;;;5057930;28;20042;-84
2024/01/12 11:07:57;;;;;;;16.60;5.60;;;;;;;;;;5101704;28;20131;-84
2024/01/12 11:10:23;;;;;;;15.48;5.43;;;;;;;;;;5107665;28;20043;-84
2024/01/12 11:12:50;;;;;;;15.38;6.00;;;;;;;;;;5104744;28;20552;-83
2024/01/12 11:15:16;;;;;;;19.08;5.57;;;;;;;;;;5100398;28;20044;-83
2024/01/12 11:17:42;;;;;;;;;;;;;;;;;;5099119;28;20051;-84
2024/01/12 11:20:10;;;;;;;24.50;5.25;;;;;;;;;;5107456;28;19920;-84
2024/01/12 11:22:40;;;;;;;17.85;4.78;;;;;;;;;;5106942;28;20574;-84
2024/01/12 11:25:07;;;;;;;14.43;4.88;;;;;;;;;;5107923;28;20055;-84
2024/01/12 11:27:33;;;;;;;18.88;4.38;;;;;;;;;;5089177;28;20443;-81
2024/01/12 11:30:00;;;;;;;18.77;4.88;;;;;;;;;;5106127;28;20489;-83
2024/01/12 11:32:28;;;;;;;18.52;4.53;;;;;;;;;;5106443;28;20119;-82
2024/01/12 11:35:09;;;;;;;14.93;3.65;;;;;;;;;;5107704;28;20492;-83
2024/01/12 11:37:35;;;;;;;20.05;4.50;;;;;;;;;;5107057;28;20039;-83
2024/01/12 11:40:04;;;;;;;13.15;4.18;;;;;;;;;;5107353;28;20160;-82
2024/01/12 11:42:32;;;;;;;14.65;3.90;;;;;;;;;;5105318;28;20040;-82
2024/01/12 11:45:00;;;;;;;25.20;5.43;;;;;;;;;;5081429;28;20055;-83
2024/01/12 11:47:29;;;;;;;20.80;4.32;;;;;;;;;;5103272;28;20127;-83
2024/01/12 11:49:55;;;;;;;13.35;3.78;;;;;;;;;;5103185;28;20048;-82
2024/01/12 11:52:21;;;;;;;;;;;;;;;;;;5107605;28;20487;-81
2024/01/12 11:54:47;;;;;;;16.63;3.40;;;;;;;;;;5106421;28;20002;-83
2024/01/12 11:57:13;;;;;;;16.05;3.63;;;;;;;;;;5106924;28;20043;-83
2024/01/12 11:59:39;;;;;;;15.45;3.38;;;;;;;;;;5088251;28;20151;-83
2024/01/12 12:02:06;;;;;;;15.80;4.22;;;;;;;;;;5087487;28;20488;-83
2024/01/12 12:04:32;;;;;;;16.90;3.45;;;;;;;;;;5074375;28;20078;-83
2024/01/12 12:06:59;;;;;;;17.70;3.40;;;;;;;;;;5086805;28;20052;-83
2024/01/12 12:09:26;;;;;;;19.50;3.45;;;;;;;;;;5086009;28;20044;-80
2024/01/12 12:11:52;;;;;;;14.13;3.42;;;;;;;;;;5085400;28;20070;-82
2024/01/12 12:14:18;;;;;;;20.75;3.28;;;;;;;;;;5091314;28;20098;-83
2024/01/12 12:16:45;;;;;;;15.82;3.28;;;;;;;;;;5072784;28;20056;-83
2024/01/12 12:19:11;;;;;;;16.75;3.33;;;;;;;;;;5056448;28;20084;-83
2024/01/12 12:21:37;;;;;;;17.30;3.20;;;;;;;;;;5060466;28;20047;-83
2024/01/12 12:24:03;;;;;;;;;;;;;;;;;;5075801;28;20048;-83
2024/01/12 12:26:29;;;;;;;16.65;3.42;;;;;;;;;;5091338;28;19920;-82
2024/01/12 12:28:58;;;;;;;21.08;3.75;;;;;;;;;;5057175;28;20052;-82
2024/01/12 12:31:27;;;;;;;16.10;3.00;;;;;;;;;;5072737;28;20057;-83
2024/01/12 12:33:53;;;;;;;21.95;3.78;;;;;;;;;;5070278;28;20077;-82
2024/01/12 12:36:19;;;;;;;16.40;3.20;;;;;;;;;;5092988;28;20512;-82
2024/01/12 12:38:45;;;;;;;17.88;3.35;;;;;;;;;;5089583;28;20044;-83
2024/01/12 12:41:11;;;;;;;;;;;;;;;;;;5072773;28;20545;-82
2024/01/12 12:43:38;;;;;;;10.32;2.65;;;;;;;;;;5077631;28;19968;-83
2024/01/12 12:46:04;;;;;;;22.45;4.43;;;;;;;;;;5090241;28;20066;-79
2024/01/12 12:48:31;;;;;;;17.13;3.08;;;;;;;;;;5086178;28;20051;-81
2024/01/12 12:50:58;;;;;;;15.07;2.95;;;;;;;;;;5092427;28;20048;-83
2024/01/12 12:53:24;;;;;;;16.83;3.03;;;;;;;;;;5058995;28;20048;-83
2024/01/12 12:55:50;;;;;;;13.30;3.25;;;;;;;;;;5075280;28;20052;-83
2024/01/12 12:58:16;;;;;;;13.43;2.60;;;;;;;;;;5074867;28;20094;-83
2024/01/12 13:00:42;;;;;;;17.80;3.22;;;;;;;;;;5091699;28;20047;-84
2024/01/12 13:03:08;;;;;;;17.50;2.78;;;;;;;;;;5058609;28;20052;-83
2024/01/12 13:05:38;;;;;;;;;;;;;;;;;;5073835;28;20131;-81
2024/01/12 13:08:07;;;;;;;16.45;3.25;;;;;;;;;;5070176;28;19927;-81
2024/01/12 13:10:34;;;;;;;18.00;3.15;;;;;;;;;;5089826;28;20044;-81
2024/01/12 13:13:00;;;;;;;14.45;3.20;;;;;;;;;;5085606;28;20063;-85
2024/01/12 13:15:26;;;;;;;;;;;;;;;;;;5075126;28;20530;-85
2024/01/12 13:17:52;;;;;;;13.90;3.00;;;;;;;;;;5091800;28;19931;-84
2024/01/12 13:20:18;;;;;;;16.58;2.83;;;;;;;;;;5058912;28;20454;-84
2024/01/12 13:22:44;;;;;;;19.38;2.88;;;;;;;;;;5073439;28;20032;-84
2024/01/12 13:25:11;;;;;;;22.40;3.35;;;;;;;;;;5070305;28;20040;-82
2024/01/12 13:27:37;;;;;;;16.58;3.53;;;;;;;;;;5087159;28;20044;-83
2024/01/12 13:30:04;;;;;;;19.77;3.00;;;;;;;;;;5074224;28;20035;-84
2024/01/12 13:32:31;;;;;;;;;;;;;;;;;;5075298;28;20075;-83
2024/01/12 13:34:57;;;;;;;17.63;3.40;;;;;;;;;;5090874;28;19924;-85
2024/01/12 13:37:23;;;;;;;20.50;3.30;;;;;;;;;;5052123;28;20145;-84
2024/01/12 13:39:49;;;;;;;16.02;2.95;;;;;;;;;;5073873;28;20040;-84
2024/01/12 13:42:15;;;;;;;15.80;2.90;;;;;;;;;;5074382;28;20036;-84
2024/01/12 13:44:42;;;;;;;13.90;3.53;;;;;;;;;;5087300;28;20052;-83
2024/01/12 13:47:08;;;;;;;16.67;3.30;;;;;;;;;;5088640;28;20043;-85
2024/01/12 13:49:34;;;;;;;21.08;3.50;;;;;;;;;;5074275;28;20626;-84
2024/01/12 13:52:00;;;;;;;15.85;3.78;;;;;;;;;;5072210;28;20385;-84
2024/01/12 13:54:26;;;;;;;31.40;4.13;;;;;;;;;;5069616;28;20044;-84
2024/01/12 13:56:52;;;;;;;;;;;;;;;;;;5088831;28;20396;-84
2024/01/12 13:59:18;;;;;;;10.23;2.53;;;;;;;;;;5089445;28;19920;-84
2024/01/12 14:01:44;;;;;;;16.80;2.88;;;;;;;;;;5070423;28;20088;-84
2024/01/12 14:04:10;;;;;;;;;;;;;;;;;;5083179;28;20571;-84
2024/01/12 14:06:37;;;;;;;13.38;3.58;;;;;;;;;;5091549;28;20415;-83
2024/01/12 14:09:04;;;;;;;23.17;4.25;;;;;;;;;;5068792;28;20056;-86
2024/01/12 14:11:31;;;;;;;22.35;3.30;;;;;;;;;;5081640;28;20087;-84
2024/01/12 14:13:57;;;;;;;22.20;3.25;;;;;;;;;;5085221;28;20366;-82
2024/01/12 14:16:23;;;;;;;23.23;3.05;;;;;;;;;;5076412;28;20044;-85
2024/01/12 14:18:49;;;;;;;15.38;3.03;;;;;;;;;;5051804;28;20052;-84
2024/01/12 14:21:15;;;;;;;15.48;3.25;;;;;;;;;;5061702;28;20047;-84
2024/01/12 14:23:41;;;;;;;17.58;3.17;;;;;;;;;;5053664;28;20044;-83
2024/01/12 14:26:07;;;;;;;15.98;2.70;;;;;;;;;;5065892;28;20048;-83
2024/01/12 14:28:34;;;;;;;14.20;3.22;;;;;;;;;;5056602;28;20097;-84
2024/01/12 14:31:01;;;;;;;23.30;3.70;;;;;;;;;;5066842;28;20471;-84
2024/01/12 14:33:29;;;;;;;18.85;3.15;;;;;;;;;;5090823;28;20040;-84
2024/01/12 14:35:55;;;;;;;21.20;3.42;;;;;;;;;;5090418;28;20047;-84
2024/01/12 14:38:22;;;;;;;15.15;3.05;;;;;;;;;;5053203;28;20163;-84
2024/01/12 14:40:48;;;;;;;25.00;4.07;;;;;;;;;;5084390;28;20066;-82
2024/01/12 14:43:14;;;;;;;18.35;2.70;;;;;;;;;;5054803;28;20055;-84
2024/01/12 14:45:40;;;;;;;17.38;2.80;;;;;;;;;;5038755;28;20127;-84
2024/01/12 14:48:06;;;;;;;19.15;3.60;;;;;;;;;;5036586;28;20041;-84
2024/01/12 14:50:32;;;;;;;26.83;3.53;;;;;;;;;;5053783;28;20049;-84
2024/01/12 14:52:58;;;;;;;16.05;3.08;;;;;;;;;;5036587;28;20049;-84
2024/01/12 14:55:24;;;;;;;23.60;3.63;;;;;;;;;;5060154;28;20100;-84
2024/01/12 14:57:50;;;;;;;15.88;4.10;;;;;;;;;;5070242;28;20111;-84
2024/01/12 15:00:16;;;;;;;16.15;2.92;;;;;;;;;;5056558;28;20050;-84
2024/01/12 15:02:42;;;;;;;;;;;;;;;;;;5056115;28;20050;-84
2024/01/12 15:05:11;;;;;;;21.33;3.20;;;;;;;;;;5076657;28;20759;-84
2024/01/12 15:07:37;;;;;;;17.58;3.10;;;;;;;;;;5073985;28;20505;-84
2024/01/12 15:10:03;;;;;;;;;;;;;;;;;;5064637;28;20047;-84
2024/01/12 15:12:29;;;;;;;10.90;3.03;;;;;;;;;;5084485;28;19943;-84
2024/01/12 15:14:56;;;;;;;20.77;2.90;;;;;;;;;;5084415;28;20052;-84
2024/01/12 15:17:22;;;;;;;18.98;3.10;;;;;;;;;;5065576;28;20805;-84
2024/01/12 15:19:48;;;;;;;;;;;;;;;;;;5073239;28;20397;-82
2024/01/12 15:22:15;;;;;;;13.05;2.85;;;;;;;;;;5079062;28;19927;-85
2024/01/12 15:24:41;;;;;;;23.52;3.10;;;;;;;;;;5070009;28;20052;-83
2024/01/12 15:27:09;;;;;;;15.38;3.35;;;;;;;;;;5067847;28;20040;-83
2024/01/12 15:29:35;;;;;;;21.40;3.35;;;;;;;;;;5113926;28;20044;-84
2024/01/12 15:32:02;;;;;;;19.65;3.88;;;;;;;;;;5060516;28;20173;-83
2024/01/12 15:34:28;;;;;;;17.25;3.72;;;;;;;;;;5074819;28;20084;-83
2024/01/12 15:36:54;;;;;;;;;;;;;;;;;;5078447;28;20126;-83
2024/01/12 15:39:20;;;;;;;23.67;3.78;;;;;;;;;;5097132;28;20518;-84
2024/01/12 15:41:46;;;;;;;19.95;3.75;;;;;;;;;;5071917;28;20051;-85
2024/01/12 15:44:12;;;;;;;20.73;4.32;;;;;;;;;;5091394;28;20048;-85
2024/01/12 15:46:38;;;;;;;;;;;;;;;;;;5078219;28;20048;-85
2024/01/12 15:49:04;;;;;;;21.35;4.30;;;;;;;;;;5076766;28;20268;-86
2024/01/12 15:51:30;;;;;;;14.48;3.53;;;;;;;;;;5096733;28;20104;-86
2024/01/12 15:53:56;;;;;;;22.77;4.10;;;;;;;;;;5096133;28;20523;-84
2024/01/12 15:56:22;;;;;;;16.33;3.80;;;;;;;;;;5066276;28;20121;-84
2024/01/12 15:58:48;;;;;;;24.83;3.83;;;;;;;;;;5088133;28;20048;-85